sensor_id;sensor_type;location;lat;lon;timestamp;P1;durP1;ratioP1;P2;durP2;ratioP2
46889;SDS011;32625;51.080;16.970;2023-07-16T00:00:46;6.40;;;3.33;;
46889;SDS011;32625;51.080;16.970;2023-07-16T00:03:13;4.90;;;3.55;;
46889;SDS011;32625;51.080;16.970;2023-07-16T00:05:41;5.00;;;3.67;;
46889;SDS011;32625;51.080;16.970;2023-07-16T00:08:08;6.50;;;3.67;;
46889;SDS011;32625;51.080;16.970;2023-07-16T00:10:36;4.28;;;3.33;;
46889;SDS011;32625;51.080;16.970;2023-07-16T00:13:03;4.95;;;3.30;;
46889;SDS011;32625;51.080;16.970;2023-07-16T00:15:31;9.00;;;3.42;;
46889;SDS011;32625;51.080;16.970;2023-07-16T00:17:59;4.82;;;3.58;;
46889;SDS011;32625;51.080;16.970;2023-07-16T00:20:26;8.75;;;3.20;;
46889;SDS011;32625;51.080;16.970;2023-07-16T00:22:54;5.18;;;3.33;;
46889;SDS011;32625;51.080;16.970;2023-07-16T00:25:21;12.88;;;5.25;;
46889;SDS011;32625;51.080;16.970;2023-07-16T00:27:48;5.35;;;3.55;;
46889;SDS011;32625;51.080;16.970;2023-07-16T00:30:15;5.13;;;3.83;;
46889;SDS011;32625;51.080;16.970;2023-07-16T00:32:43;7.80;;;3.78;;
46889;SDS011;32625;51.080;16.970;2023-07-16T00:35:10;8.00;;;2.90;;
46889;SDS011;32625;51.080;16.970;2023-07-16T00:37:37;6.22;;;3.30;;
46889;SDS011;32625;51.080;16.970;2023-07-16T00:40:06;3.95;;;3.10;;
46889;SDS011;32625;51.080;16.970;2023-07-16T00:42:34;4.18;;;3.30;;
46889;SDS011;32625;51.080;16.970;2023-07-16T00:45:03;8.25;;;3.30;;
46889;SDS011;32625;51.080;16.970;2023-07-16T00:47:35;3.50;;;2.78;;
46889;SDS011;32625;51.080;16.970;2023-07-16T00:50:03;3.47;;;3.03;;
46889;SDS011;32625;51.080;16.970;2023-07-16T00:52:30;6.60;;;3.28;;
46889;SDS011;32625;51.080;16.970;2023-07-16T00:54:59;3.40;;;2.92;;
46889;SDS011;32625;51.080;16.970;2023-07-16T00:57:26;3.75;;;3.22;;
46889;SDS011;32625;51.080;16.970;2023-07-16T00:59:54;6.25;;;3.65;;
46889;SDS011;32625;51.080;16.970;2023-07-16T01:02:22;8.55;;;3.55;;
46889;SDS011;32625;51.080;16.970;2023-07-16T01:04:49;6.15;;;3.05;;
46889;SDS011;32625;51.080;16.970;2023-07-16T01:07:16;4.30;;;3.38;;
46889;SDS011;32625;51.080;16.970;2023-07-16T01:09:49;4.97;;;3.60;;
46889;SDS011;32625;51.080;16.970;2023-07-16T01:12:17;4.30;;;3.80;;
46889;SDS011;32625;51.080;16.970;2023-07-16T01:14:48;4.45;;;3.17;;
46889;SDS011;32625;51.080;16.970;2023-07-16T01:17:16;4.13;;;3.25;;
46889;SDS011;32625;51.080;16.970;2023-07-16T01:19:43;4.10;;;3.13;;
46889;SDS011;32625;51.080;16.970;2023-07-16T01:30:32;4.47;;;3.30;;
46889;SDS011;32625;51.080;16.970;2023-07-16T01:33:00;4.25;;;3.30;;
46889;SDS011;32625;51.080;16.970;2023-07-16T01:35:30;3.90;;;3.05;;
46889;SDS011;32625;51.080;16.970;2023-07-16T01:37:58;5.72;;;3.50;;
46889;SDS011;32625;51.080;16.970;2023-07-16T01:40:25;9.32;;;3.63;;
46889;SDS011;32625;51.080;16.970;2023-07-16T01:42:52;6.65;;;3.65;;
46889;SDS011;32625;51.080;16.970;2023-07-16T01:45:20;7.80;;;3.25;;
46889;SDS011;32625;51.080;16.970;2023-07-16T01:47:50;4.07;;;2.83;;
46889;SDS011;32625;51.080;16.970;2023-07-16T01:50:34;5.22;;;3.63;;
46889;SDS011;32625;51.080;16.970;2023-07-16T01:53:01;3.55;;;3.25;;
46889;SDS011;32625;51.080;16.970;2023-07-16T01:55:28;3.90;;;3.08;;
46889;SDS011;32625;51.080;16.970;2023-07-16T01:57:56;4.85;;;3.38;;
46889;SDS011;32625;51.080;16.970;2023-07-16T02:00:23;3.67;;;3.15;;
46889;SDS011;32625;51.080;16.970;2023-07-16T02:02:50;6.80;;;3.25;;
46889;SDS011;32625;51.080;16.970;2023-07-16T02:05:18;5.63;;;4.47;;
46889;SDS011;32625;51.080;16.970;2023-07-16T02:07:46;4.10;;;3.20;;
46889;SDS011;32625;51.080;16.970;2023-07-16T02:10:13;4.18;;;2.97;;
46889;SDS011;32625;51.080;16.970;2023-07-16T02:12:40;4.40;;;2.75;;
46889;SDS011;32625;51.080;16.970;2023-07-16T02:15:08;4.03;;;3.10;;
46889;SDS011;32625;51.080;16.970;2023-07-16T02:17:36;6.28;;;3.28;;
46889;SDS011;32625;51.080;16.970;2023-07-16T02:20:03;6.88;;;3.13;;
46889;SDS011;32625;51.080;16.970;2023-07-16T02:22:34;5.22;;;3.83;;
46889;SDS011;32625;51.080;16.970;2023-07-16T02:25:02;5.70;;;3.13;;
46889;SDS011;32625;51.080;16.970;2023-07-16T02:27:30;6.40;;;3.78;;
46889;SDS011;32625;51.080;16.970;2023-07-16T02:29:57;3.58;;;3.22;;
46889;SDS011;32625;51.080;16.970;2023-07-16T02:32:24;5.82;;;3.90;;
46889;SDS011;32625;51.080;16.970;2023-07-16T02:34:52;4.32;;;3.33;;
46889;SDS011;32625;51.080;16.970;2023-07-16T02:37:19;6.90;;;3.38;;
46889;SDS011;32625;51.080;16.970;2023-07-16T02:39:46;5.97;;;3.38;;
46889;SDS011;32625;51.080;16.970;2023-07-16T02:42:14;6.40;;;3.60;;
46889;SDS011;32625;51.080;16.970;2023-07-16T02:44:43;5.45;;;3.28;;
46889;SDS011;32625;51.080;16.970;2023-07-16T02:47:11;9.73;;;3.35;;
46889;SDS011;32625;51.080;16.970;2023-07-16T02:49:39;4.45;;;3.63;;
46889;SDS011;32625;51.080;16.970;2023-07-16T02:52:06;9.02;;;3.40;;
46889;SDS011;32625;51.080;16.970;2023-07-16T02:54:37;5.30;;;3.70;;
46889;SDS011;32625;51.080;16.970;2023-07-16T02:57:05;6.50;;;4.03;;
46889;SDS011;32625;51.080;16.970;2023-07-16T02:59:32;4.28;;;3.40;;
46889;SDS011;32625;51.080;16.970;2023-07-16T03:02:00;5.63;;;3.80;;
46889;SDS011;32625;51.080;16.970;2023-07-16T03:04:27;14.30;;;5.03;;
46889;SDS011;32625;51.080;16.970;2023-07-16T03:06:55;7.38;;;3.45;;
46889;SDS011;32625;51.080;16.970;2023-07-16T03:09:22;3.63;;;3.10;;
46889;SDS011;32625;51.080;16.970;2023-07-16T03:11:49;5.28;;;3.45;;
46889;SDS011;32625;51.080;16.970;2023-07-16T03:14:17;3.40;;;3.10;;
46889;SDS011;32625;51.080;16.970;2023-07-16T03:16:44;5.57;;;3.42;;
46889;SDS011;32625;51.080;16.970;2023-07-16T03:19:12;5.38;;;3.83;;
46889;SDS011;32625;51.080;16.970;2023-07-16T03:21:39;6.65;;;3.75;;
46889;SDS011;32625;51.080;16.970;2023-07-16T03:24:06;8.20;;;3.42;;
46889;SDS011;32625;51.080;16.970;2023-07-16T03:26:34;8.43;;;3.67;;
46889;SDS011;32625;51.080;16.970;2023-07-16T03:29:02;6.15;;;3.65;;
46889;SDS011;32625;51.080;16.970;2023-07-16T03:31:30;6.03;;;3.63;;
46889;SDS011;32625;51.080;16.970;2023-07-16T03:33:57;4.28;;;3.40;;
46889;SDS011;32625;51.080;16.970;2023-07-16T03:36:28;5.32;;;3.55;;
46889;SDS011;32625;51.080;16.970;2023-07-16T03:38:56;4.63;;;3.20;;
46889;SDS011;32625;51.080;16.970;2023-07-16T03:41:23;6.93;;;3.65;;
46889;SDS011;32625;51.080;16.970;2023-07-16T03:43:51;4.40;;;3.47;;
46889;SDS011;32625;51.080;16.970;2023-07-16T03:46:20;5.72;;;3.40;;
46889;SDS011;32625;51.080;16.970;2023-07-16T03:48:47;4.88;;;3.67;;
46889;SDS011;32625;51.080;16.970;2023-07-16T03:51:14;5.43;;;3.70;;
46889;SDS011;32625;51.080;16.970;2023-07-16T03:53:43;4.20;;;3.70;;
46889;SDS011;32625;51.080;16.970;2023-07-16T03:56:11;8.65;;;4.20;;
46889;SDS011;32625;51.080;16.970;2023-07-16T03:58:39;5.72;;;3.40;;
46889;SDS011;32625;51.080;16.970;2023-07-16T04:01:07;7.38;;;4.10;;
46889;SDS011;32625;51.080;16.970;2023-07-16T04:03:36;6.80;;;3.47;;
46889;SDS011;32625;51.080;16.970;2023-07-16T04:06:05;5.53;;;3.75;;
46889;SDS011;32625;51.080;16.970;2023-07-16T04:08:39;6.65;;;3.67;;
46889;SDS011;32625;51.080;16.970;2023-07-16T04:11:07;7.75;;;4.13;;
46889;SDS011;32625;51.080;16.970;2023-07-16T04:13:38;5.65;;;4.47;;
46889;SDS011;32625;51.080;16.970;2023-07-16T04:16:06;6.15;;;3.47;;
46889;SDS011;32625;51.080;16.970;2023-07-16T04:18:35;6.10;;;3.70;;
46889;SDS011;32625;51.080;16.970;2023-07-16T04:21:03;5.38;;;3.55;;
46889;SDS011;32625;51.080;16.970;2023-07-16T04:23:31;8.13;;;4.30;;
46889;SDS011;32625;51.080;16.970;2023-07-16T04:26:00;9.40;;;3.33;;
46889;SDS011;32625;51.080;16.970;2023-07-16T04:28:28;11.40;;;3.40;;
46889;SDS011;32625;51.080;16.970;2023-07-16T04:30:56;4.40;;;2.92;;
46889;SDS011;32625;51.080;16.970;2023-07-16T04:33:24;5.07;;;3.22;;
46889;SDS011;32625;51.080;16.970;2023-07-16T04:35:53;4.95;;;3.10;;
46889;SDS011;32625;51.080;16.970;2023-07-16T04:38:24;8.02;;;3.42;;
46889;SDS011;32625;51.080;16.970;2023-07-16T04:40:53;4.55;;;3.25;;
46889;SDS011;32625;51.080;16.970;2023-07-16T04:43:25;6.43;;;3.03;;
46889;SDS011;32625;51.080;16.970;2023-07-16T04:45:53;4.22;;;3.35;;
46889;SDS011;32625;51.080;16.970;2023-07-16T04:48:22;7.38;;;3.88;;
46889;SDS011;32625;51.080;16.970;2023-07-16T04:50:50;5.97;;;3.28;;
46889;SDS011;32625;51.080;16.970;2023-07-16T04:53:19;5.82;;;3.53;;
46889;SDS011;32625;51.080;16.970;2023-07-16T04:55:46;5.10;;;3.33;;
46889;SDS011;32625;51.080;16.970;2023-07-16T04:58:13;6.70;;;3.53;;
46889;SDS011;32625;51.080;16.970;2023-07-16T05:00:41;4.82;;;3.08;;
46889;SDS011;32625;51.080;16.970;2023-07-16T05:03:09;4.30;;;3.30;;
46889;SDS011;32625;51.080;16.970;2023-07-16T05:05:36;18.55;;;4.63;;
46889;SDS011;32625;51.080;16.970;2023-07-16T05:08:03;4.43;;;2.42;;
46889;SDS011;32625;51.080;16.970;2023-07-16T05:10:31;7.47;;;3.13;;
46889;SDS011;32625;51.080;16.970;2023-07-16T05:12:59;10.38;;;3.17;;
46889;SDS011;32625;51.080;16.970;2023-07-16T05:15:26;7.10;;;3.15;;
46889;SDS011;32625;51.080;16.970;2023-07-16T05:17:53;5.85;;;2.75;;
46889;SDS011;32625;51.080;16.970;2023-07-16T05:20:21;8.48;;;3.13;;
46889;SDS011;32625;51.080;16.970;2023-07-16T05:22:48;6.65;;;3.63;;
46889;SDS011;32625;51.080;16.970;2023-07-16T05:25:15;3.45;;;2.70;;
46889;SDS011;32625;51.080;16.970;2023-07-16T05:27:42;8.40;;;2.85;;
46889;SDS011;32625;51.080;16.970;2023-07-16T05:30:10;11.32;;;2.65;;
46889;SDS011;32625;51.080;16.970;2023-07-16T05:32:37;6.30;;;2.72;;
46889;SDS011;32625;51.080;16.970;2023-07-16T05:35:05;7.35;;;3.15;;
46889;SDS011;32625;51.080;16.970;2023-07-16T05:37:32;6.60;;;2.67;;
46889;SDS011;32625;51.080;16.970;2023-07-16T05:40:00;6.10;;;2.78;;
46889;SDS011;32625;51.080;16.970;2023-07-16T05:42:27;5.47;;;2.63;;
46889;SDS011;32625;51.080;16.970;2023-07-16T05:44:54;8.02;;;2.30;;
46889;SDS011;32625;51.080;16.970;2023-07-16T05:47:22;7.60;;;2.28;;
46889;SDS011;32625;51.080;16.970;2023-07-16T05:49:49;5.93;;;2.80;;
46889;SDS011;32625;51.080;16.970;2023-07-16T05:52:16;7.43;;;2.42;;
46889;SDS011;32625;51.080;16.970;2023-07-16T05:54:44;3.88;;;2.08;;
46889;SDS011;32625;51.080;16.970;2023-07-16T05:57:14;5.97;;;2.60;;
46889;SDS011;32625;51.080;16.970;2023-07-16T05:59:41;6.45;;;2.40;;
46889;SDS011;32625;51.080;16.970;2023-07-16T06:02:08;8.63;;;2.70;;
46889;SDS011;32625;51.080;16.970;2023-07-16T06:04:35;4.70;;;2.70;;
46889;SDS011;32625;51.080;16.970;2023-07-16T06:07:03;8.32;;;3.40;;
46889;SDS011;32625;51.080;16.970;2023-07-16T06:09:30;5.68;;;2.40;;
46889;SDS011;32625;51.080;16.970;2023-07-16T06:11:57;5.40;;;2.08;;
46889;SDS011;32625;51.080;16.970;2023-07-16T06:14:24;6.22;;;2.25;;
46889;SDS011;32625;51.080;16.970;2023-07-16T06:16:52;10.05;;;2.55;;
46889;SDS011;32625;51.080;16.970;2023-07-16T06:19:19;7.20;;;2.15;;
46889;SDS011;32625;51.080;16.970;2023-07-16T06:21:46;3.17;;;2.05;;
46889;SDS011;32625;51.080;16.970;2023-07-16T06:24:14;2.88;;;1.98;;
46889;SDS011;32625;51.080;16.970;2023-07-16T06:26:43;6.28;;;2.30;;
46889;SDS011;32625;51.080;16.970;2023-07-16T06:29:10;6.18;;;2.20;;
46889;SDS011;32625;51.080;16.970;2023-07-16T06:31:37;3.22;;;2.25;;
46889;SDS011;32625;51.080;16.970;2023-07-16T06:34:04;4.55;;;2.33;;
46889;SDS011;32625;51.080;16.970;2023-07-16T06:36:32;2.88;;;1.73;;
46889;SDS011;32625;51.080;16.970;2023-07-16T06:38:59;2.40;;;1.85;;
46889;SDS011;32625;51.080;16.970;2023-07-16T06:41:26;5.80;;;1.98;;
46889;SDS011;32625;51.080;16.970;2023-07-16T06:43:55;4.40;;;1.80;;
46889;SDS011;32625;51.080;16.970;2023-07-16T06:46:22;11.13;;;2.75;;
46889;SDS011;32625;51.080;16.970;2023-07-16T06:48:49;20.70;;;6.55;;
46889;SDS011;32625;51.080;16.970;2023-07-16T06:51:16;17.00;;;5.03;;
46889;SDS011;32625;51.080;16.970;2023-07-16T06:53:47;4.35;;;2.50;;
46889;SDS011;32625;51.080;16.970;2023-07-16T06:56:15;6.80;;;2.97;;
46889;SDS011;32625;51.080;16.970;2023-07-16T06:58:43;8.98;;;2.75;;
46889;SDS011;32625;51.080;16.970;2023-07-16T07:01:10;5.20;;;2.42;;
46889;SDS011;32625;51.080;16.970;2023-07-16T07:03:37;4.90;;;2.20;;
46889;SDS011;32625;51.080;16.970;2023-07-16T07:06:05;2.90;;;1.83;;
46889;SDS011;32625;51.080;16.970;2023-07-16T07:08:32;3.78;;;1.60;;
46889;SDS011;32625;51.080;16.970;2023-07-16T07:10:59;7.80;;;1.90;;
46889;SDS011;32625;51.080;16.970;2023-07-16T07:13:27;3.53;;;1.90;;
46889;SDS011;32625;51.080;16.970;2023-07-16T07:15:56;2.97;;;1.52;;
46889;SDS011;32625;51.080;16.970;2023-07-16T07:18:23;4.03;;;1.90;;
46889;SDS011;32625;51.080;16.970;2023-07-16T07:20:50;5.00;;;2.03;;
46889;SDS011;32625;51.080;16.970;2023-07-16T07:23:17;3.35;;;1.40;;
46889;SDS011;32625;51.080;16.970;2023-07-16T07:25:49;2.35;;;1.67;;
46889;SDS011;32625;51.080;16.970;2023-07-16T07:28:18;2.63;;;1.40;;
46889;SDS011;32625;51.080;16.970;2023-07-16T07:30:47;2.60;;;1.50;;
46889;SDS011;32625;51.080;16.970;2023-07-16T07:33:14;2.97;;;1.60;;
46889;SDS011;32625;51.080;16.970;2023-07-16T07:35:41;1.80;;;1.50;;
46889;SDS011;32625;51.080;16.970;2023-07-16T07:38:09;2.05;;;1.50;;
46889;SDS011;32625;51.080;16.970;2023-07-16T07:40:36;3.63;;;1.55;;
46889;SDS011;32625;51.080;16.970;2023-07-16T07:43:03;4.30;;;1.60;;
46889;SDS011;32625;51.080;16.970;2023-07-16T07:45:30;1.75;;;1.30;;
46889;SDS011;32625;51.080;16.970;2023-07-16T07:47:58;1.88;;;1.40;;
46889;SDS011;32625;51.080;16.970;2023-07-16T07:50:25;2.33;;;1.40;;
46889;SDS011;32625;51.080;16.970;2023-07-16T07:52:52;4.65;;;1.55;;
46889;SDS011;32625;51.080;16.970;2023-07-16T07:55:19;3.38;;;1.95;;
46889;SDS011;32625;51.080;16.970;2023-07-16T07:57:46;1.75;;;1.42;;
46889;SDS011;32625;51.080;16.970;2023-07-16T08:00:14;3.45;;;2.45;;
46889;SDS011;32625;51.080;16.970;2023-07-16T08:02:41;1.42;;;1.33;;
46889;SDS011;32625;51.080;16.970;2023-07-16T08:05:08;1.60;;;1.38;;
46889;SDS011;32625;51.080;16.970;2023-07-16T08:07:36;3.25;;;1.35;;
46889;SDS011;32625;51.080;16.970;2023-07-16T08:10:03;3.53;;;1.63;;
46889;SDS011;32625;51.080;16.970;2023-07-16T08:12:31;2.70;;;1.67;;
46889;SDS011;32625;51.080;16.970;2023-07-16T08:14:58;4.57;;;1.85;;
46889;SDS011;32625;51.080;16.970;2023-07-16T08:17:25;2.50;;;2.05;;
46889;SDS011;32625;51.080;16.970;2023-07-16T08:19:53;2.92;;;1.40;;
46889;SDS011;32625;51.080;16.970;2023-07-16T08:22:21;2.45;;;1.77;;
46889;SDS011;32625;51.080;16.970;2023-07-16T08:24:48;1.98;;;1.40;;
46889;SDS011;32625;51.080;16.970;2023-07-16T08:27:17;2.67;;;1.45;;
46889;SDS011;32625;51.080;16.970;2023-07-16T08:29:46;5.63;;;1.45;;
46889;SDS011;32625;51.080;16.970;2023-07-16T08:32:13;3.20;;;1.50;;
46889;SDS011;32625;51.080;16.970;2023-07-16T08:34:40;1.95;;;1.48;;
46889;SDS011;32625;51.080;16.970;2023-07-16T08:37:07;2.42;;;1.50;;
46889;SDS011;32625;51.080;16.970;2023-07-16T08:39:35;5.90;;;1.85;;
46889;SDS011;32625;51.080;16.970;2023-07-16T08:42:02;1.58;;;1.45;;
46889;SDS011;32625;51.080;16.970;2023-07-16T08:44:30;1.90;;;1.30;;
46889;SDS011;32625;51.080;16.970;2023-07-16T08:46:58;2.22;;;1.65;;
46889;SDS011;32625;51.080;16.970;2023-07-16T08:49:25;1.88;;;1.67;;
46889;SDS011;32625;51.080;16.970;2023-07-16T08:51:57;2.55;;;1.77;;
46889;SDS011;32625;51.080;16.970;2023-07-16T08:54:24;3.83;;;1.80;;
46889;SDS011;32625;51.080;16.970;2023-07-16T08:56:52;1.60;;;1.50;;
46889;SDS011;32625;51.080;16.970;2023-07-16T08:59:20;2.00;;;1.60;;
46889;SDS011;32625;51.080;16.970;2023-07-16T09:01:47;4.03;;;1.67;;
46889;SDS011;32625;51.080;16.970;2023-07-16T09:04:15;1.85;;;1.60;;
46889;SDS011;32625;51.080;16.970;2023-07-16T09:06:43;3.40;;;1.50;;
46889;SDS011;32625;51.080;16.970;2023-07-16T09:09:23;1.45;;;1.35;;
46889;SDS011;32625;51.080;16.970;2023-07-16T09:11:51;2.33;;;2.13;;
46889;SDS011;32625;51.080;16.970;2023-07-16T09:14:18;4.47;;;1.88;;
46889;SDS011;32625;51.080;16.970;2023-07-16T09:16:49;2.25;;;1.55;;
46889;SDS011;32625;51.080;16.970;2023-07-16T09:19:17;2.28;;;1.60;;
46889;SDS011;32625;51.080;16.970;2023-07-16T09:21:46;5.53;;;1.70;;
46889;SDS011;32625;51.080;16.970;2023-07-16T09:24:16;3.78;;;1.60;;
46889;SDS011;32625;51.080;16.970;2023-07-16T09:26:50;2.28;;;1.67;;
46889;SDS011;32625;51.080;16.970;2023-07-16T09:29:19;3.38;;;1.70;;
46889;SDS011;32625;51.080;16.970;2023-07-16T09:32:00;3.60;;;1.70;;
46889;SDS011;32625;51.080;16.970;2023-07-16T09:34:32;2.33;;;1.90;;
46889;SDS011;32625;51.080;16.970;2023-07-16T09:36:59;1.70;;;1.50;;
46889;SDS011;32625;51.080;16.970;2023-07-16T09:39:27;2.13;;;1.90;;
46889;SDS011;32625;51.080;16.970;2023-07-16T09:41:55;2.28;;;2.00;;
46889;SDS011;32625;51.080;16.970;2023-07-16T09:44:23;1.88;;;1.60;;
46889;SDS011;32625;51.080;16.970;2023-07-16T09:46:51;3.28;;;1.73;;
46889;SDS011;32625;51.080;16.970;2023-07-16T09:49:18;3.63;;;2.00;;
46889;SDS011;32625;51.080;16.970;2023-07-16T09:51:45;5.35;;;1.48;;
46889;SDS011;32625;51.080;16.970;2023-07-16T09:54:15;3.05;;;1.67;;
46889;SDS011;32625;51.080;16.970;2023-07-16T09:56:46;4.03;;;1.77;;
46889;SDS011;32625;51.080;16.970;2023-07-16T09:59:19;6.05;;;2.33;;
46889;SDS011;32625;51.080;16.970;2023-07-16T10:01:50;2.63;;;1.70;;
46889;SDS011;32625;51.080;16.970;2023-07-16T10:04:19;3.47;;;2.35;;
46889;SDS011;32625;51.080;16.970;2023-07-16T10:06:54;2.70;;;2.05;;
46889;SDS011;32625;51.080;16.970;2023-07-16T10:12:24;2.78;;;1.88;;
46889;SDS011;32625;51.080;16.970;2023-07-16T10:14:55;2.95;;;1.80;;
46889;SDS011;32625;51.080;16.970;2023-07-16T10:17:30;2.30;;;1.90;;
46889;SDS011;32625;51.080;16.970;2023-07-16T10:19:59;1.90;;;1.70;;
46889;SDS011;32625;51.080;16.970;2023-07-16T10:22:40;3.13;;;2.10;;
46889;SDS011;32625;51.080;16.970;2023-07-16T10:27:46;1.95;;;1.70;;
46889;SDS011;32625;51.080;16.970;2023-07-16T10:30:14;3.42;;;1.85;;
46889;SDS011;32625;51.080;16.970;2023-07-16T10:32:42;3.20;;;1.95;;
46889;SDS011;32625;51.080;16.970;2023-07-16T10:35:10;3.47;;;1.83;;
46889;SDS011;32625;51.080;16.970;2023-07-16T10:37:38;3.63;;;1.88;;
46889;SDS011;32625;51.080;16.970;2023-07-16T10:40:09;2.30;;;1.88;;
46889;SDS011;32625;51.080;16.970;2023-07-16T10:42:40;2.60;;;1.92;;
46889;SDS011;32625;51.080;16.970;2023-07-16T10:45:09;4.60;;;2.40;;
46889;SDS011;32625;51.080;16.970;2023-07-16T10:47:38;2.85;;;1.85;;
46889;SDS011;32625;51.080;16.970;2023-07-16T10:50:08;2.03;;;1.63;;
46889;SDS011;32625;51.080;16.970;2023-07-16T10:52:36;2.00;;;1.80;;
46889;SDS011;32625;51.080;16.970;2023-07-16T10:55:06;4.78;;;2.03;;
46889;SDS011;32625;51.080;16.970;2023-07-16T10:57:34;4.40;;;1.65;;
46889;SDS011;32625;51.080;16.970;2023-07-16T11:00:02;2.80;;;1.73;;
46889;SDS011;32625;51.080;16.970;2023-07-16T11:02:30;3.28;;;2.00;;
46889;SDS011;32625;51.080;16.970;2023-07-16T11:04:58;2.78;;;1.60;;
46889;SDS011;32625;51.080;16.970;2023-07-16T11:07:27;2.78;;;2.05;;
46889;SDS011;32625;51.080;16.970;2023-07-16T11:09:55;3.10;;;1.98;;
46889;SDS011;32625;51.080;16.970;2023-07-16T11:12:22;4.30;;;2.05;;
46889;SDS011;32625;51.080;16.970;2023-07-16T11:14:54;7.45;;;1.92;;
46889;SDS011;32625;51.080;16.970;2023-07-16T11:17:23;1.83;;;1.60;;
46889;SDS011;32625;51.080;16.970;2023-07-16T11:19:54;2.03;;;1.50;;
46889;SDS011;32625;51.080;16.970;2023-07-16T11:22:25;3.92;;;1.80;;
46889;SDS011;32625;51.080;16.970;2023-07-16T11:24:53;1.92;;;1.70;;
46889;SDS011;32625;51.080;16.970;2023-07-16T11:27:22;2.00;;;1.67;;
46889;SDS011;32625;51.080;16.970;2023-07-16T11:29:58;2.33;;;1.75;;
46889;SDS011;32625;51.080;16.970;2023-07-16T11:32:41;2.50;;;1.80;;
46889;SDS011;32625;51.080;16.970;2023-07-16T11:35:11;1.90;;;1.27;;
46889;SDS011;32625;51.080;16.970;2023-07-16T11:37:44;5.47;;;1.90;;
46889;SDS011;32625;51.080;16.970;2023-07-16T11:40:18;2.17;;;1.80;;
46889;SDS011;32625;51.080;16.970;2023-07-16T11:42:47;3.53;;;1.85;;
46889;SDS011;32625;51.080;16.970;2023-07-16T11:45:15;1.65;;;1.52;;
46889;SDS011;32625;51.080;16.970;2023-07-16T11:47:44;2.42;;;1.65;;
46889;SDS011;32625;51.080;16.970;2023-07-16T11:50:12;2.05;;;1.70;;
46889;SDS011;32625;51.080;16.970;2023-07-16T11:52:40;1.95;;;1.48;;
46889;SDS011;32625;51.080;16.970;2023-07-16T11:55:08;2.08;;;1.38;;
46889;SDS011;32625;51.080;16.970;2023-07-16T11:57:35;5.13;;;1.35;;
46889;SDS011;32625;51.080;16.970;2023-07-16T12:00:03;2.90;;;1.42;;
46889;SDS011;32625;51.080;16.970;2023-07-16T12:02:31;2.70;;;1.70;;
46889;SDS011;32625;51.080;16.970;2023-07-16T12:04:59;1.20;;;1.10;;
46889;SDS011;32625;51.080;16.970;2023-07-16T12:07:30;1.27;;;1.17;;
46889;SDS011;32625;51.080;16.970;2023-07-16T12:09:58;1.20;;;0.88;;
46889;SDS011;32625;51.080;16.970;2023-07-16T12:12:26;1.65;;;1.38;;
46889;SDS011;32625;51.080;16.970;2023-07-16T12:14:53;1.05;;;0.95;;
46889;SDS011;32625;51.080;16.970;2023-07-16T12:17:20;1.42;;;1.15;;
46889;SDS011;32625;51.080;16.970;2023-07-16T12:19:47;1.60;;;1.27;;
46889;SDS011;32625;51.080;16.970;2023-07-16T12:22:16;1.98;;;1.38;;
46889;SDS011;32625;51.080;16.970;2023-07-16T12:24:45;1.60;;;1.40;;
46889;SDS011;32625;51.080;16.970;2023-07-16T12:27:13;3.42;;;1.50;;
46889;SDS011;32625;51.080;16.970;2023-07-16T12:29:41;2.42;;;1.20;;
46889;SDS011;32625;51.080;16.970;2023-07-16T12:32:09;4.05;;;1.40;;
46889;SDS011;32625;51.080;16.970;2023-07-16T12:34:36;3.13;;;1.55;;
46889;SDS011;32625;51.080;16.970;2023-07-16T12:37:04;3.00;;;1.63;;
46889;SDS011;32625;51.080;16.970;2023-07-16T12:39:31;3.17;;;1.30;;
46889;SDS011;32625;51.080;16.970;2023-07-16T12:41:59;1.50;;;1.40;;
46889;SDS011;32625;51.080;16.970;2023-07-16T12:44:26;1.65;;;1.30;;
46889;SDS011;32625;51.080;16.970;2023-07-16T12:46:53;2.05;;;1.30;;
46889;SDS011;32625;51.080;16.970;2023-07-16T12:49:20;2.50;;;1.20;;
46889;SDS011;32625;51.080;16.970;2023-07-16T12:51:48;3.08;;;1.48;;
46889;SDS011;32625;51.080;16.970;2023-07-16T12:54:15;3.88;;;2.90;;
46889;SDS011;32625;51.080;16.970;2023-07-16T12:56:42;8.70;;;5.80;;
46889;SDS011;32625;51.080;16.970;2023-07-16T12:59:10;4.47;;;2.42;;
46889;SDS011;32625;51.080;16.970;2023-07-16T13:01:38;2.92;;;2.28;;
46889;SDS011;32625;51.080;16.970;2023-07-16T13:10:01;2.30;;;2.10;;
46889;SDS011;32625;51.080;16.970;2023-07-16T13:12:43;3.42;;;2.33;;
46889;SDS011;32625;51.080;16.970;2023-07-16T13:15:10;4.55;;;2.25;;
46889;SDS011;32625;51.080;16.970;2023-07-16T13:17:37;3.45;;;2.33;;
46889;SDS011;32625;51.080;16.970;2023-07-16T13:20:05;5.28;;;3.92;;
46889;SDS011;32625;51.080;16.970;2023-07-16T13:22:35;5.88;;;4.00;;
46889;SDS011;32625;51.080;16.970;2023-07-16T13:25:02;4.78;;;3.65;;
46889;SDS011;32625;51.080;16.970;2023-07-16T13:27:30;3.58;;;2.17;;
46889;SDS011;32625;51.080;16.970;2023-07-16T13:29:57;6.70;;;4.38;;
46889;SDS011;32625;51.080;16.970;2023-07-16T13:32:25;5.90;;;3.58;;
46889;SDS011;32625;51.080;16.970;2023-07-16T13:34:54;9.77;;;6.85;;
46889;SDS011;32625;51.080;16.970;2023-07-16T13:37:21;7.95;;;5.43;;
46889;SDS011;32625;51.080;16.970;2023-07-16T13:39:48;4.65;;;3.65;;
46889;SDS011;32625;51.080;16.970;2023-07-16T13:42:15;8.25;;;5.28;;
46889;SDS011;32625;51.080;16.970;2023-07-16T13:44:49;11.85;;;5.05;;
46889;SDS011;32625;51.080;16.970;2023-07-16T13:47:16;8.23;;;2.70;;
46889;SDS011;32625;51.080;16.970;2023-07-16T13:49:43;10.65;;;7.00;;
46889;SDS011;32625;51.080;16.970;2023-07-16T13:52:11;7.65;;;5.15;;
46889;SDS011;32625;51.080;16.970;2023-07-16T13:54:38;4.82;;;3.42;;
46889;SDS011;32625;51.080;16.970;2023-07-16T13:57:08;5.00;;;2.78;;
46889;SDS011;32625;51.080;16.970;2023-07-16T13:59:36;2.22;;;1.70;;
46889;SDS011;32625;51.080;16.970;2023-07-16T14:02:03;8.38;;;4.75;;
46889;SDS011;32625;51.080;16.970;2023-07-16T14:04:31;6.60;;;4.47;;
46889;SDS011;32625;51.080;16.970;2023-07-16T14:07:04;7.28;;;4.85;;
46889;SDS011;32625;51.080;16.970;2023-07-16T14:09:31;7.93;;;4.35;;
46889;SDS011;32625;51.080;16.970;2023-07-16T14:11:58;4.75;;;2.95;;
46889;SDS011;32625;51.080;16.970;2023-07-16T14:14:26;4.35;;;2.25;;
46889;SDS011;32625;51.080;16.970;2023-07-16T14:16:53;4.53;;;3.45;;
46889;SDS011;32625;51.080;16.970;2023-07-16T14:19:22;5.97;;;4.35;;
46889;SDS011;32625;51.080;16.970;2023-07-16T14:21:49;28.75;;;3.85;;
46889;SDS011;32625;51.080;16.970;2023-07-16T14:24:17;3.45;;;1.92;;
46889;SDS011;32625;51.080;16.970;2023-07-16T14:26:44;1.83;;;1.70;;
46889;SDS011;32625;51.080;16.970;2023-07-16T14:29:13;2.78;;;1.85;;
46889;SDS011;32625;51.080;16.970;2023-07-16T14:31:44;2.67;;;2.03;;
46889;SDS011;32625;51.080;16.970;2023-07-16T14:34:11;4.43;;;2.35;;
46889;SDS011;32625;51.080;16.970;2023-07-16T14:36:40;10.02;;;4.80;;
46889;SDS011;32625;51.080;16.970;2023-07-16T14:39:08;7.45;;;3.35;;
46889;SDS011;32625;51.080;16.970;2023-07-16T14:41:36;4.65;;;3.20;;
46889;SDS011;32625;51.080;16.970;2023-07-16T14:44:04;3.95;;;2.55;;
46889;SDS011;32625;51.080;16.970;2023-07-16T14:46:32;5.82;;;4.50;;
46889;SDS011;32625;51.080;16.970;2023-07-16T14:48:59;5.75;;;2.80;;
46889;SDS011;32625;51.080;16.970;2023-07-16T14:51:26;4.22;;;3.03;;
46889;SDS011;32625;51.080;16.970;2023-07-16T14:53:54;2.53;;;2.30;;
46889;SDS011;32625;51.080;16.970;2023-07-16T14:56:22;4.10;;;2.72;;
46889;SDS011;32625;51.080;16.970;2023-07-16T14:58:49;4.05;;;2.13;;